Latest Coastal Weather Observations for Maroochydore

IDQ60701

Issued at 12:01 pm EST Saturday 25 February 2017 (issued every 10 minutes, with the page automatically refreshed every 10 minutes)

About coastal observations | Map of coastal stations | Coastal observations for QLD | Marine services | Other Formats
Station Details ID: 040861 Name: SUNSHINE COAST AIRPORT Lat: -26.60 Lon: 153.09 Height: 3.3 m
Data from the previous 72 hours. | See also: Recent months at Maroochydore
Date/Time
EST
Temp
°C
Wind Pressure Rain since
9am
mm
Weather Cloud Vis
km
Sea
Height
m
Swell
Dir  Spd
kts
Gust
kts
hPa Trend Height
m
Period
s
Dir
25/11:30am 29.6 SE 10 13 1015.5 - 0.0 - - 10 - - - -
25/11:00am 28.8 SE 13 19 1015.7 - 0.0 - - 10 - - - -
25/10:30am 28.8 SE 13 18 1016.1 - 0.0 - - 10 - - - -
25/10:00am 29.3 SE 13 16 1016.2 - 0.0 - - 10 - - - -
25/09:30am 27.9 SE 13 17 1016.3 - 0.0 - - 10 - - - -
25/09:00am 27.9 SSE 13 18 1016.4 - 0.0 - - 10 - - - -
25/08:30am 27.0 S 13 18 1016.3 - 0.0 - - 10 - - - -
25/08:00am 25.7 S 14 18 1016.4 - 0.0 - Partly cloudy 10 - - - -
25/07:30am 24.8 S 12 17 1016.2 - 0.0 - - 10 - - - -
25/07:00am 23.8 S 11 15 1016.0 - 0.0 - Partly cloudy 10 - - - -
25/06:30am 22.8 SSW 9 12 1015.8 - 0.0 - Partly cloudy 10 - - - -
25/06:00am 21.6 SSW 7 9 1015.6 - 0.0 - Mostly clear 10 - - - -
25/05:30am 21.4 SSW 6 9 1015.4 - 0.0 - Partly cloudy 10 - - - -
25/05:00am 21.1 SW 6 9 1015.2 - 0.0 - Partly cloudy 10 - - - -
25/04:30am 20.2 SW 5 7 1014.9 - 0.0 - Partly cloudy 10 - - - -
25/04:00am 20.3 SW 6 7 1014.7 - 0.0 - Partly cloudy 10 - - - -
25/03:30am 20.0 WSW 5 7 1014.6 - 0.0 - Partly cloudy 10 - - - -
25/03:00am 20.2 SW 6 7 1014.5 - 0.0 - Partly cloudy 10 - - - -
25/02:30am 20.6 SW 6 7 1014.6 - 0.0 - Partly cloudy 10 - - - -
25/02:00am 20.7 WSW 7 9 1014.7 - 0.0 - Partly cloudy 10 - - - -
25/01:30am 21.7 SW 5 7 1014.8 - 0.0 - Partly cloudy 10 - - - -
25/01:00am 24.0 SE 8 11 1014.9 - 0.0 - - 10 - - - -
25/12:30am 24.4 SE 7 11 1015.1 - 0.0 - Partly cloudy 10 - - - -
25/12:00am 24.8 SE 8 11 1015.3 - 0.0 - Partly cloudy 10 - - - -
 
Date/Time
EST
Temp
°C
Wind Pressure Rain since
9am
mm
Weather Cloud Vis
km
Sea
Height
m
Swell
Dir  Spd
kts
Gust
kts
hPa Trend Height
m
Period
s
Dir
24/11:30pm 24.8 SE 9 13 1015.5 - 0.0 - Partly cloudy 10 - - - -
24/11:00pm 24.9 SE 9 13 1016.1 - 0.0 - Partly cloudy 10 - - - -
24/10:30pm 24.9 SE 9 11 1016.4 - 0.0 - Partly cloudy 10 - - - -
24/10:00pm 25.1 SE 10 14 1016.4 - 0.0 - Partly cloudy 10 - - - -
24/09:30pm 24.9 SE 11 14 1016.6 - 0.0 - Partly cloudy 10 - - - -
24/09:00pm 25.1 SE 11 14 1016.8 - 0.0 - Partly cloudy 10 - - - -
24/08:30pm 25.2 SE 10 13 1016.7 - 0.0 - Partly cloudy 10 - - - -
24/08:00pm 25.2 SE 10 14 1016.7 - 0.0 - Partly cloudy 10 - - - -
24/07:30pm 25.3 ESE 10 14 1016.3 - 0.0 - - 10 - - - -
24/07:00pm 25.3 ESE 10 13 1016.1 - 0.0 - - 10 - - - -
24/06:30pm 25.5 ESE 10 13 1016.0 - 0.0 - - 10 - - - -
24/06:00pm 26.0 ESE 11 14 1015.9 - 0.0 - - 10 - - - -
24/05:30pm 26.4 ESE 12 15 1015.6 - 0.0 - - 10 - - - -
24/05:00pm 26.9 ESE 12 15 1015.6 - 0.0 - - 10 - - - -
24/04:30pm 27.2 SE 13 17 1015.6 - 0.0 - - 10 - - - -
24/04:00pm 27.7 SE 14 18 1015.6 - 0.0 - - 10 - - - -
24/03:30pm 28.2 ESE 14 19 1015.6 - 0.0 - - 10 - - - -
24/03:00pm 28.9 ESE 14 19 1015.6 - 0.0 - - 10 - - - -
24/02:30pm 29.0 SE 13 17 1015.8 - 0.0 - - 10 - - - -
24/02:00pm 29.6 ESE 12 15 1016.0 - 0.0 - - 10 - - - -
24/01:30pm 28.9 SE 13 17 1016.2 - 0.0 - - 10 - - - -
24/01:00pm 29.4 SE 12 16 1016.5 - 0.0 - Partly cloudy 10 - - - -
24/12:30pm 29.2 SSE 13 18 1016.8 - 0.0 - Partly cloudy 10 - - - -
24/12:00pm 29.7 SE 13 18 1016.9 - 0.0 - Partly cloudy 10 - - - -
24/11:30am 30.1 SSE 12 15 1017.3 - 0.0 - Partly cloudy 10 - - - -
24/11:00am 28.6 SSE 12 16 1017.6 - 0.0 - Partly cloudy 10 - - - -
24/10:30am 28.1 SSE 12 17 1017.8 - 0.0 - Partly cloudy 10 - - - -
24/10:00am 27.3 SSE 11 15 1018.1 - 0.0 - Partly cloudy 10 - - - -
24/09:30am 28.5 SE 11 14 1018.1 - 0.0 - - 10 - - - -
24/09:00am 27.8 SE 12 16 1018.1 - 0.0 - - 10 - - - -
24/08:30am 27.5 SE 12 17 1018.1 - 0.0 - Partly cloudy 10 - - - -
24/08:00am 25.8 S 9 13 1017.9 - 0.0 - Partly cloudy 10 - - - -
24/07:30am 24.3 S 8 11 1017.6 - 0.0 - Cloudy 10 - - - -
24/07:00am 24.0 S 8 11 1017.4 - 0.0 - Partly cloudy 10 - - - -
24/06:30am 22.8 SSW 8 11 1017.1 - 0.0 - Partly cloudy 10 - - - -
24/06:00am 22.4 SSW 7 10 1016.7 - 0.0 - Partly cloudy 10 - - - -
24/05:30am 22.1 S 8 10 1016.4 - 0.0 - Partly cloudy 10 - - - -
24/05:00am 22.6 S 7 9 1016.3 - 0.0 - Partly cloudy 10 - - - -
24/04:30am 22.8 S 8 10 1016.2 - 0.0 - Partly cloudy 10 - - - -
24/04:00am 22.8 SSW 9 13 1016.2 - 0.0 - Partly cloudy 10 - - - -
24/03:30am 21.6 SW 6 7 1016.2 - 0.0 - Cloudy 10 - - - -
24/03:00am 21.6 SW 5 6 1016.3 - 0.0 - Mostly cloudy 10 - - - -
24/02:30am 22.2 SW 7 8 1016.4 - 0.0 - Partly cloudy 10 - - - -
24/02:00am 22.8 WSW 7 9 1016.6 - 0.0 - Partly cloudy 10 - - - -
24/01:30am 24.2 SSE 8 11 1016.8 - 0.0 - - 10 - - - -
24/01:00am 25.0 SE 12 16 1016.9 - 0.0 - Partly cloudy 10 - - - -
24/12:30am 25.0 SE 12 16 1017.3 - 0.0 - Partly cloudy 10 - - - -
24/12:00am 25.0 SE 11 15 1017.5 - 0.0 - - 10 - - - -
 
Date/Time
EST
Temp
°C
Wind Pressure Rain since
9am
mm
Weather Cloud Vis
km
Sea
Height
m
Swell
Dir  Spd
kts
Gust
kts
hPa Trend Height
m
Period
s
Dir
23/11:30pm 25.1 SE 13 17 1017.6 - 0.0 - Partly cloudy 10 - - - -
23/11:00pm 25.3 SE 13 18 1017.8 - 0.0 - Partly cloudy 10 - - - -
23/10:30pm 25.3 SE 14 19 1017.9 - 0.0 - Partly cloudy 10 - - - -
23/10:00pm 25.5 SE 13 19 1018.2 - 0.0 - Partly cloudy 10 - - - -
23/09:30pm 25.3 SE 13 18 1018.1 - 0.0 - Partly cloudy 10 - - - -
23/09:00pm 25.5 SE 12 15 1018.4 - 0.0 - Mostly cloudy 10 - - - -
23/08:30pm 25.4 SE 12 16 1018.4 - 0.0 - Partly cloudy 10 - - - -
23/08:00pm 25.6 SE 10 14 1018.1 - 0.0 - Partly cloudy 10 - - - -
23/07:30pm 25.4 SE 11 15 1017.9 - 0.0 - Partly cloudy 10 - - - -
23/07:00pm 25.4 SE 13 17 1017.7 - 0.0 - Partly cloudy 10 - - - -
23/06:30pm 25.6 SE 12 17 1017.4 - 0.0 - Partly cloudy 10 - - - -
23/06:00pm 25.8 SE 11 14 1017.1 - 0.0 - Cloudy 10 - - - -
23/05:30pm 26.2 SE 12 15 1017.0 - 0.0 - Partly cloudy 10 - - - -
23/05:00pm 27.0 SE 13 17 1016.9 - 0.0 - - 10 - - - -
23/04:30pm 27.3 ESE 14 17 1016.7 - 0.0 - Partly cloudy 10 - - - -
23/04:00pm 27.3 ESE 15 19 1016.7 - 0.0 - - 10 - - - -
23/03:30pm 27.5 SE 16 20 1016.8 - 0.0 - Partly cloudy 10 - - - -
23/03:00pm 28.7 SE 15 20 1016.7 - 0.0 - Partly cloudy 10 - - - -
23/02:30pm 29.6 SE 12 17 1016.9 - 0.0 - - 10 - - - -
23/02:00pm 28.9 SSE 14 17 1017.1 - 0.0 - - 10 - - - -
23/01:30pm 29.0 SE 14 18 1017.1 - 0.0 - - 10 - - - -
23/01:00pm 30.0 SE 14 18 1017.3 - 0.0 - - 10 - - - -
23/12:30pm 29.2 SE 15 19 1017.6 - 0.0 - Partly cloudy 10 - - - -
23/12:00pm 29.3 SSE 15 22 1017.9 - 0.0 - Partly cloudy 10 - - - -
23/11:30am 27.4 SSE 14 20 1018.2 - 0.0 - Partly cloudy 10 - - - -
23/11:00am 25.9 SSE 15 21 1018.5 - 0.0 - Partly cloudy 10 - - - -
23/10:30am 26.9 SSE 14 19 1018.6 - 0.0 - Partly cloudy 10 - - - -
23/10:00am 27.7 SSE 12 19 1018.6 - 0.0 - Partly cloudy 10 - - - -
23/09:30am 26.1 SSE 13 19 1018.6 - 0.0 - Partly cloudy 10 - - - -
23/09:00am 27.8 SSE 13 18 1018.5 - 0.0 - Cloudy 10 - - - -
23/08:30am 26.7 S 11 15 1018.3 - 0.0 - Partly cloudy 10 - - - -
23/08:00am 25.9 S 10 17 1018.2 - 0.0 - Partly cloudy 10 - - - -
23/07:30am 25.5 S 11 14 1018.1 - 0.0 - Partly cloudy 10 - - - -
23/07:00am 24.3 S 9 11 1017.7 - 0.0 - Partly cloudy 10 - - - -
23/06:30am 22.5 SSW 8 11 1017.4 - 0.0 - Cloudy 10 - - - -
23/06:00am 21.3 SW 5 8 1017.3 - 0.0 - Partly cloudy 10 - - - -
23/05:30am 21.4 S 7 9 1017.0 - 0.0 - Partly cloudy 10 - - - -
23/05:00am 21.5 SSW 7 11 1017.0 - 0.0 - Partly cloudy 10 - - - -
23/04:30am 21.6 SSW 7 9 1016.9 - 0.0 - Partly cloudy 10 - - - -
23/04:00am 22.0 S 6 10 1016.8 - 0.0 - - 10 - - - -
23/03:30am 24.4 SSE 13 18 1016.6 - 0.0 - - 10 - - - -
23/03:00am 24.6 SE 14 20 1016.7 - 0.0 - Partly cloudy 10 - - - -
23/02:30am 24.9 SE 13 18 1016.8 - 0.0 - Partly cloudy 10 - - - -
23/02:00am 24.8 SSE 13 20 1016.8 - 0.0 - Partly cloudy 10 - - - -
23/01:30am 24.7 SE 12 18 1017.2 - 0.0 - Partly cloudy 10 - - - -
23/01:00am 24.7 SE 14 19 1017.6 - 0.0 - Partly cloudy 10 - - - -
23/12:30am 24.6 SE 13 19 1017.7 - 0.0 - - 10 - - - -
23/12:00am 24.9 SE 14 19 1018.1 - 0.0 - Mostly clear 10 - - - -
 
Date/Time
EST
Temp
°C
Wind Pressure Rain since
9am
mm
Weather Cloud Vis
km
Sea
Height
m
Swell
Dir  Spd
kts
Gust
kts
hPa Trend Height
m
Period
s
Dir
22/11:30pm 24.9 SE 15 19 1018.3 - 0.0 - Partly cloudy 10 - - - -
22/11:00pm 25.3 SE 14 19 1018.5 - 0.0 - Partly cloudy 10 - - - -
22/10:30pm 25.2 SE 16 20 1018.3 - 0.0 - Partly cloudy 10 - - - -
22/10:00pm 25.2 SE 16 22 1018.5 - 0.0 - Partly cloudy 10 - - - -
22/09:30pm 25.3 SE 15 20 1018.6 - 0.0 - Partly cloudy 10 - - - -
22/09:00pm 25.3 SE 16 23 1018.6 - 0.0 - Mostly clear 10 - - - -
22/08:30pm 25.5 SE 16 23 1018.4 - 0.0 - Partly cloudy 10 - - - -
22/08:00pm 25.7 SE 15 21 1018.2 - 0.0 - Partly cloudy 10 - - - -
22/07:30pm 25.7 SE 15 21 1018.0 - 0.0 - Partly cloudy 10 - - - -
22/07:00pm 25.6 SE 16 22 1017.6 - 0.0 - Partly cloudy 10 - - - -
22/06:30pm 25.7 SE 16 22 1017.4 - 0.0 - Partly cloudy 10 - - - -
22/06:00pm 25.8 SE 14 19 1017.1 - 0.0 - Mostly clear 10 - - - -
22/05:30pm 26.0 SE 14 21 1017.0 - 0.0 - Partly cloudy 10 - - - -
22/05:00pm 26.2 SE 17 23 1016.8 - 0.0 - Partly cloudy 10 - - - -
22/04:30pm 26.5 SE 15 21 1016.7 - 0.0 - Partly cloudy 10 - - - -
22/04:00pm 27.3 SE 16 22 1016.5 - 0.0 - Partly cloudy 10 - - - -
22/03:30pm 27.4 SE 17 23 1016.5 - 0.0 - Partly cloudy 10 - - - -
22/03:00pm 27.6 SE 16 22 1016.5 - 0.0 - Mostly clear 10 - - - -
22/02:30pm 28.6 SE 16 21 1016.8 - 0.0 - Partly cloudy 10 - - - -
22/02:00pm 28.4 SE 16 23 1017.1 - 0.0 - - 10 - - - -
22/01:30pm 28.4 SE 15 21 1017.3 - 0.0 - Partly cloudy 10 - - - -
22/01:00pm 28.4 SE 16 20 1017.6 - 0.0 - Partly cloudy 10 - - - -
22/12:30pm 28.9 SE 16 25 1017.8 - 0.0 - - 10 - - - -

Other Formats:

Comma delimited format used in spreadsheet applications
http://www.bom.gov.au/fwo/IDQ60701/IDQ60701.94569.axf

JavaScript Object Notation format (JSON) in row-major order
http://www.bom.gov.au/fwo/IDQ60701/IDQ60701.94569.json